sensor_id;sensor_type;location;lat;lon;timestamp;temperature;humidity
53880;DHT22;39791;53.184;5.486;2023-04-03T00:01:00;4.80;99.90
53880;DHT22;39791;53.184;5.486;2023-04-03T00:03:25;4.80;99.90
53880;DHT22;39791;53.184;5.486;2023-04-03T00:05:51;4.60;44.80
53880;DHT22;39791;53.184;5.486;2023-04-03T00:08:17;4.70;1.00
53880;DHT22;39791;53.184;5.486;2023-04-03T00:10:42;4.80;1.00
53880;DHT22;39791;53.184;5.486;2023-04-03T00:13:08;4.60;99.90
53880;DHT22;39791;53.184;5.486;2023-04-03T00:15:35;4.80;99.90
53880;DHT22;39791;53.184;5.486;2023-04-03T00:18:01;4.80;99.90
53880;DHT22;39791;53.184;5.486;2023-04-03T00:20:27;4.70;91.90
53880;DHT22;39791;53.184;5.486;2023-04-03T00:22:53;4.40;1.00
53880;DHT22;39791;53.184;5.486;2023-04-03T00:25:19;4.60;1.00
53880;DHT22;39791;53.184;5.486;2023-04-03T00:27:44;4.70;1.00
53880;DHT22;39791;53.184;5.486;2023-04-03T00:30:14;4.30;1.00
53880;DHT22;39791;53.184;5.486;2023-04-03T00:32:40;4.30;1.00
53880;DHT22;39791;53.184;5.486;2023-04-03T00:35:06;4.50;95.80
53880;DHT22;39791;53.184;5.486;2023-04-03T00:37:32;4.40;99.90
53880;DHT22;39791;53.184;5.486;2023-04-03T00:39:58;4.00;99.90
53880;DHT22;39791;53.184;5.486;2023-04-03T00:42:24;3.90;99.90
53880;DHT22;39791;53.184;5.486;2023-04-03T00:47:18;4.10;1.00
53880;DHT22;39791;53.184;5.486;2023-04-03T00:49:44;4.10;1.00
53880;DHT22;39791;53.184;5.486;2023-04-03T00:52:14;3.60;64.80
53880;DHT22;39791;53.184;5.486;2023-04-03T00:54:42;3.70;99.90
53880;DHT22;39791;53.184;5.486;2023-04-03T00:57:09;3.50;99.90
53880;DHT22;39791;53.184;5.486;2023-04-03T00:59:40;4.00;1.00
53880;DHT22;39791;53.184;5.486;2023-04-03T01:02:07;3.80;1.00
53880;DHT22;39791;53.184;5.486;2023-04-03T01:04:41;3.50;99.90
53880;DHT22;39791;53.184;5.486;2023-04-03T01:07:17;3.40;99.90
53880;DHT22;39791;53.184;5.486;2023-04-03T01:09:44;3.40;1.00
53880;DHT22;39791;53.184;5.486;2023-04-03T01:14:48;3.50;99.90
53880;DHT22;39791;53.184;5.486;2023-04-03T01:17:28;3.20;1.00
53880;DHT22;39791;53.184;5.486;2023-04-03T01:23:17;3.80;1.00
53880;DHT22;39791;53.184;5.486;2023-04-03T01:25:49;3.20;75.50
53880;DHT22;39791;53.184;5.486;2023-04-03T01:28:21;3.50;99.90
53880;DHT22;39791;53.184;5.486;2023-04-03T01:33:35;3.30;1.00
53880;DHT22;39791;53.184;5.486;2023-04-03T01:36:01;3.80;11.90
53880;DHT22;39791;53.184;5.486;2023-04-03T01:38:26;3.10;71.70
53880;DHT22;39791;53.184;5.486;2023-04-03T01:40:52;3.10;99.90
53880;DHT22;39791;53.184;5.486;2023-04-03T01:43:18;3.70;99.90
53880;DHT22;39791;53.184;5.486;2023-04-03T01:45:43;3.40;99.90
53880;DHT22;39791;53.184;5.486;2023-04-03T01:48:09;3.30;99.90
53880;DHT22;39791;53.184;5.486;2023-04-03T01:50:35;3.50;99.90
53880;DHT22;39791;53.184;5.486;2023-04-03T01:53:00;3.20;99.90
53880;DHT22;39791;53.184;5.486;2023-04-03T01:55:26;3.70;99.90
53880;DHT22;39791;53.184;5.486;2023-04-03T01:57:51;3.10;99.90
53880;DHT22;39791;53.184;5.486;2023-04-03T02:00:17;3.70;99.90
53880;DHT22;39791;53.184;5.486;2023-04-03T02:02:43;3.10;99.90
53880;DHT22;39791;53.184;5.486;2023-04-03T02:05:08;3.20;99.90
53880;DHT22;39791;53.184;5.486;2023-04-03T02:07:34;3.30;99.90
53880;DHT22;39791;53.184;5.486;2023-04-03T02:10:00;3.10;99.90
53880;DHT22;39791;53.184;5.486;2023-04-03T02:12:25;3.10;99.90
53880;DHT22;39791;53.184;5.486;2023-04-03T02:14:51;3.00;99.90
53880;DHT22;39791;53.184;5.486;2023-04-03T02:17:17;3.50;99.90
53880;DHT22;39791;53.184;5.486;2023-04-03T02:19:42;2.90;98.70
53880;DHT22;39791;53.184;5.486;2023-04-03T02:22:08;3.10;79.50
53880;DHT22;39791;53.184;5.486;2023-04-03T02:24:34;2.90;40.80
53880;DHT22;39791;53.184;5.486;2023-04-03T02:26:59;3.30;13.10
53880;DHT22;39791;53.184;5.486;2023-04-03T02:29:25;2.70;1.00
53880;DHT22;39791;53.184;5.486;2023-04-03T02:31:51;2.80;1.00
53880;DHT22;39791;53.184;5.486;2023-04-03T02:34:17;3.00;1.00
53880;DHT22;39791;53.184;5.486;2023-04-03T02:36:42;3.00;1.00
53880;DHT22;39791;53.184;5.486;2023-04-03T02:39:08;3.10;1.00
53880;DHT22;39791;53.184;5.486;2023-04-03T02:41:34;3.30;1.00
53880;DHT22;39791;53.184;5.486;2023-04-03T02:44:04;2.60;1.00
53880;DHT22;39791;53.184;5.486;2023-04-03T02:46:30;2.60;1.00
53880;DHT22;39791;53.184;5.486;2023-04-03T02:48:56;3.20;1.00
53880;DHT22;39791;53.184;5.486;2023-04-03T02:51:22;3.00;1.00
53880;DHT22;39791;53.184;5.486;2023-04-03T02:53:48;2.90;1.00
53880;DHT22;39791;53.184;5.486;2023-04-03T02:56:14;2.80;1.00
53880;DHT22;39791;53.184;5.486;2023-04-03T02:58:40;2.30;1.00
53880;DHT22;39791;53.184;5.486;2023-04-03T03:01:06;2.30;1.00
53880;DHT22;39791;53.184;5.486;2023-04-03T03:03:31;2.30;1.00
53880;DHT22;39791;53.184;5.486;2023-04-03T03:06:12;2.90;1.00
53880;DHT22;39791;53.184;5.486;2023-04-03T03:08:38;2.70;1.00
53880;DHT22;39791;53.184;5.486;2023-04-03T03:11:04;2.30;1.00
53880;DHT22;39791;53.184;5.486;2023-04-03T03:13:30;2.80;1.00
53880;DHT22;39791;53.184;5.486;2023-04-03T03:15:56;2.70;38.60
53880;DHT22;39791;53.184;5.486;2023-04-03T03:18:22;2.40;80.40
53880;DHT22;39791;53.184;5.486;2023-04-03T03:20:55;2.90;99.90
53880;DHT22;39791;53.184;5.486;2023-04-03T03:23:23;2.40;99.90
53880;DHT22;39791;53.184;5.486;2023-04-03T03:25:48;2.80;99.90
53880;DHT22;39791;53.184;5.486;2023-04-03T03:28:14;2.20;99.90
53880;DHT22;39791;53.184;5.486;2023-04-03T03:30:40;2.50;99.90
53880;DHT22;39791;53.184;5.486;2023-04-03T03:33:06;2.20;99.90
53880;DHT22;39791;53.184;5.486;2023-04-03T03:35:32;2.20;99.90
53880;DHT22;39791;53.184;5.486;2023-04-03T03:37:57;2.10;99.90
53880;DHT22;39791;53.184;5.486;2023-04-03T03:40:23;2.70;99.90
53880;DHT22;39791;53.184;5.486;2023-04-03T03:42:48;2.80;99.90
53880;DHT22;39791;53.184;5.486;2023-04-03T03:45:14;2.30;99.90
53880;DHT22;39791;53.184;5.486;2023-04-03T03:47:40;2.10;99.90
53880;DHT22;39791;53.184;5.486;2023-04-03T03:50:06;2.10;99.90
53880;DHT22;39791;53.184;5.486;2023-04-03T03:52:31;2.70;99.90
53880;DHT22;39791;53.184;5.486;2023-04-03T03:54:57;2.00;99.90
53880;DHT22;39791;53.184;5.486;2023-04-03T03:57:23;2.40;99.90
53880;DHT22;39791;53.184;5.486;2023-04-03T03:59:48;2.10;99.90
53880;DHT22;39791;53.184;5.486;2023-04-03T04:02:15;2.80;99.90
53880;DHT22;39791;53.184;5.486;2023-04-03T04:04:41;2.80;99.90
53880;DHT22;39791;53.184;5.486;2023-04-03T04:07:07;2.30;99.90
53880;DHT22;39791;53.184;5.486;2023-04-03T04:09:32;2.20;99.90
53880;DHT22;39791;53.184;5.486;2023-04-03T04:11:58;2.60;99.90
53880;DHT22;39791;53.184;5.486;2023-04-03T04:14:23;2.30;99.90
53880;DHT22;39791;53.184;5.486;2023-04-03T04:16:49;2.20;99.90
53880;DHT22;39791;53.184;5.486;2023-04-03T04:19:15;2.20;99.90
53880;DHT22;39791;53.184;5.486;2023-04-03T04:21:40;2.10;99.90
53880;DHT22;39791;53.184;5.486;2023-04-03T04:24:07;2.20;99.90
53880;DHT22;39791;53.184;5.486;2023-04-03T04:26:33;2.80;99.90
53880;DHT22;39791;53.184;5.486;2023-04-03T04:28:59;2.80;99.90
53880;DHT22;39791;53.184;5.486;2023-04-03T04:31:24;2.60;99.90
53880;DHT22;39791;53.184;5.486;2023-04-03T04:33:50;2.50;99.90
53880;DHT22;39791;53.184;5.486;2023-04-03T04:36:16;2.80;99.90
53880;DHT22;39791;53.184;5.486;2023-04-03T04:38:41;2.80;99.90
53880;DHT22;39791;53.184;5.486;2023-04-03T04:41:07;2.30;99.90
53880;DHT22;39791;53.184;5.486;2023-04-03T04:43:33;2.00;99.90
53880;DHT22;39791;53.184;5.486;2023-04-03T04:46:06;2.40;99.90
53880;DHT22;39791;53.184;5.486;2023-04-03T04:48:32;2.10;99.90
53880;DHT22;39791;53.184;5.486;2023-04-03T04:50:58;2.40;99.90
53880;DHT22;39791;53.184;5.486;2023-04-03T04:53:23;2.00;99.90
53880;DHT22;39791;53.184;5.486;2023-04-03T04:55:49;1.90;99.90
53880;DHT22;39791;53.184;5.486;2023-04-03T04:58:14;2.10;99.90
53880;DHT22;39791;53.184;5.486;2023-04-03T05:00:40;1.90;99.90
53880;DHT22;39791;53.184;5.486;2023-04-03T05:03:06;2.00;99.90
53880;DHT22;39791;53.184;5.486;2023-04-03T05:05:31;2.20;99.90
53880;DHT22;39791;53.184;5.486;2023-04-03T05:07:57;2.60;99.90
53880;DHT22;39791;53.184;5.486;2023-04-03T05:10:22;2.00;99.90
53880;DHT22;39791;53.184;5.486;2023-04-03T05:12:48;2.10;99.90
53880;DHT22;39791;53.184;5.486;2023-04-03T05:15:14;2.10;99.90
53880;DHT22;39791;53.184;5.486;2023-04-03T05:17:39;1.60;99.90
53880;DHT22;39791;53.184;5.486;2023-04-03T05:20:05;2.10;99.90
53880;DHT22;39791;53.184;5.486;2023-04-03T05:22:31;1.50;99.90
53880;DHT22;39791;53.184;5.486;2023-04-03T05:24:57;2.30;99.90
53880;DHT22;39791;53.184;5.486;2023-04-03T05:27:23;1.60;99.90
53880;DHT22;39791;53.184;5.486;2023-04-03T05:29:50;2.40;99.90
53880;DHT22;39791;53.184;5.486;2023-04-03T05:32:16;1.70;99.90
53880;DHT22;39791;53.184;5.486;2023-04-03T05:34:44;2.40;99.90
53880;DHT22;39791;53.184;5.486;2023-04-03T05:37:10;1.90;99.90
53880;DHT22;39791;53.184;5.486;2023-04-03T05:39:35;1.10;99.90
53880;DHT22;39791;53.184;5.486;2023-04-03T05:42:01;2.60;99.90
53880;DHT22;39791;53.184;5.486;2023-04-03T05:44:27;2.30;99.90
53880;DHT22;39791;53.184;5.486;2023-04-03T05:46:52;1.90;99.90
53880;DHT22;39791;53.184;5.486;2023-04-03T05:49:18;2.40;99.90
53880;DHT22;39791;53.184;5.486;2023-04-03T05:51:43;2.20;99.90
53880;DHT22;39791;53.184;5.486;2023-04-03T05:54:19;2.00;99.90
53880;DHT22;39791;53.184;5.486;2023-04-03T05:56:45;2.80;99.90
53880;DHT22;39791;53.184;5.486;2023-04-03T05:59:11;2.00;99.90
53880;DHT22;39791;53.184;5.486;2023-04-03T06:01:37;2.10;99.90
53880;DHT22;39791;53.184;5.486;2023-04-03T06:04:03;2.00;99.90
53880;DHT22;39791;53.184;5.486;2023-04-03T06:09:10;2.50;99.90
53880;DHT22;39791;53.184;5.486;2023-04-03T06:11:35;2.80;99.90
53880;DHT22;39791;53.184;5.486;2023-04-03T06:14:01;2.60;99.90
53880;DHT22;39791;53.184;5.486;2023-04-03T06:16:26;2.90;99.90
53880;DHT22;39791;53.184;5.486;2023-04-03T06:18:55;2.50;99.90
53880;DHT22;39791;53.184;5.486;2023-04-03T06:21:21;2.80;99.90
53880;DHT22;39791;53.184;5.486;2023-04-03T06:23:47;2.70;99.90
53880;DHT22;39791;53.184;5.486;2023-04-03T06:26:12;2.90;99.90
53880;DHT22;39791;53.184;5.486;2023-04-03T06:28:38;2.40;99.90
53880;DHT22;39791;53.184;5.486;2023-04-03T06:31:03;3.20;99.90
53880;DHT22;39791;53.184;5.486;2023-04-03T06:33:29;3.20;99.90
53880;DHT22;39791;53.184;5.486;2023-04-03T06:35:58;2.80;99.90
53880;DHT22;39791;53.184;5.486;2023-04-03T06:38:24;2.80;99.90
53880;DHT22;39791;53.184;5.486;2023-04-03T06:40:50;2.80;99.90
53880;DHT22;39791;53.184;5.486;2023-04-03T06:43:17;3.40;99.90
53880;DHT22;39791;53.184;5.486;2023-04-03T06:45:42;2.70;99.90
53880;DHT22;39791;53.184;5.486;2023-04-03T06:48:08;2.90;99.90
53880;DHT22;39791;53.184;5.486;2023-04-03T06:50:33;3.00;99.90
53880;DHT22;39791;53.184;5.486;2023-04-03T06:52:59;2.90;99.90
53880;DHT22;39791;53.184;5.486;2023-04-03T06:55:26;3.80;99.90
53880;DHT22;39791;53.184;5.486;2023-04-03T06:57:52;3.40;99.90
53880;DHT22;39791;53.184;5.486;2023-04-03T07:00:18;3.50;99.90
53880;DHT22;39791;53.184;5.486;2023-04-03T07:02:43;3.70;99.90
53880;DHT22;39791;53.184;5.486;2023-04-03T07:05:09;3.60;99.90
53880;DHT22;39791;53.184;5.486;2023-04-03T07:07:35;3.90;99.90
53880;DHT22;39791;53.184;5.486;2023-04-03T07:10:01;3.70;99.90
53880;DHT22;39791;53.184;5.486;2023-04-03T07:12:27;4.00;99.90
53880;DHT22;39791;53.184;5.486;2023-04-03T07:14:52;4.10;99.90
53880;DHT22;39791;53.184;5.486;2023-04-03T07:17:18;4.00;99.90
53880;DHT22;39791;53.184;5.486;2023-04-03T07:19:44;4.30;99.90
53880;DHT22;39791;53.184;5.486;2023-04-03T07:22:09;4.40;99.90
53880;DHT22;39791;53.184;5.486;2023-04-03T07:24:36;4.40;99.90
53880;DHT22;39791;53.184;5.486;2023-04-03T07:27:02;5.90;99.90
53880;DHT22;39791;53.184;5.486;2023-04-03T07:29:29;4.40;99.90
53880;DHT22;39791;53.184;5.486;2023-04-03T07:31:55;4.10;1.00
53880;DHT22;39791;53.184;5.486;2023-04-03T07:34:21;4.30;1.00
53880;DHT22;39791;53.184;5.486;2023-04-03T07:36:46;4.50;1.00
53880;DHT22;39791;53.184;5.486;2023-04-03T07:39:12;4.70;99.90
53880;DHT22;39791;53.184;5.486;2023-04-03T07:41:38;5.00;1.00
53880;DHT22;39791;53.184;5.486;2023-04-03T07:44:03;5.10;99.90
53880;DHT22;39791;53.184;5.486;2023-04-03T07:46:31;5.30;99.90
53880;DHT22;39791;53.184;5.486;2023-04-03T07:48:56;4.70;1.00
53880;DHT22;39791;53.184;5.486;2023-04-03T07:51:22;5.10;99.90
53880;DHT22;39791;53.184;5.486;2023-04-03T07:53:49;4.90;1.00
53880;DHT22;39791;53.184;5.486;2023-04-03T07:56:16;5.40;99.90
53880;DHT22;39791;53.184;5.486;2023-04-03T07:58:42;5.30;73.20
53880;DHT22;39791;53.184;5.486;2023-04-03T08:01:07;5.80;1.00
53880;DHT22;39791;53.184;5.486;2023-04-03T08:03:33;6.40;1.00
53880;DHT22;39791;53.184;5.486;2023-04-03T08:06:06;6.70;1.00
53880;DHT22;39791;53.184;5.486;2023-04-03T08:08:33;7.30;99.90
53880;DHT22;39791;53.184;5.486;2023-04-03T08:11:00;7.50;1.00
53880;DHT22;39791;53.184;5.486;2023-04-03T08:13:26;7.50;81.30
53880;DHT22;39791;53.184;5.486;2023-04-03T08:15:52;7.40;99.90
53880;DHT22;39791;53.184;5.486;2023-04-03T08:18:18;7.50;49.20
53880;DHT22;39791;53.184;5.486;2023-04-03T08:20:44;7.50;1.00
53880;DHT22;39791;53.184;5.486;2023-04-03T08:23:10;7.90;99.90
53880;DHT22;39791;53.184;5.486;2023-04-03T08:25:40;9.70;99.90
53880;DHT22;39791;53.184;5.486;2023-04-03T08:28:07;8.60;43.20
53880;DHT22;39791;53.184;5.486;2023-04-03T08:30:33;8.70;1.00
53880;DHT22;39791;53.184;5.486;2023-04-03T08:33:01;8.60;99.90
53880;DHT22;39791;53.184;5.486;2023-04-03T08:35:27;9.90;99.90
53880;DHT22;39791;53.184;5.486;2023-04-03T08:37:53;8.60;99.90
53880;DHT22;39791;53.184;5.486;2023-04-03T08:40:18;8.90;95.40
53880;DHT22;39791;53.184;5.486;2023-04-03T08:43:00;9.00;1.00
53880;DHT22;39791;53.184;5.486;2023-04-03T08:46:02;9.60;1.00
53880;DHT22;39791;53.184;5.486;2023-04-03T08:48:36;8.90;99.90
53880;DHT22;39791;53.184;5.486;2023-04-03T08:51:13;8.90;99.90
53880;DHT22;39791;53.184;5.486;2023-04-03T08:53:42;9.40;99.90
53880;DHT22;39791;53.184;5.486;2023-04-03T08:56:10;9.60;99.90
53880;DHT22;39791;53.184;5.486;2023-04-03T08:58:54;9.80;99.90
53880;DHT22;39791;53.184;5.486;2023-04-03T09:01:41;9.70;99.90
53880;DHT22;39791;53.184;5.486;2023-04-03T09:04:13;9.70;99.90
53880;DHT22;39791;53.184;5.486;2023-04-03T09:06:39;9.70;99.50
53880;DHT22;39791;53.184;5.486;2023-04-03T09:09:31;9.80;91.40
53880;DHT22;39791;53.184;5.486;2023-04-03T09:14:49;10.30;56.70
53880;DHT22;39791;53.184;5.486;2023-04-03T09:17:41;10.90;31.60
53880;DHT22;39791;53.184;5.486;2023-04-03T09:22:45;10.70;2.40
53880;DHT22;39791;53.184;5.486;2023-04-03T09:25:37;10.50;1.00
53880;DHT22;39791;53.184;5.486;2023-04-03T09:28:04;10.10;1.00
53880;DHT22;39791;53.184;5.486;2023-04-03T09:30:35;9.90;1.00
53880;DHT22;39791;53.184;5.486;2023-04-03T09:33:01;10.20;1.00
53880;DHT22;39791;53.184;5.486;2023-04-03T09:35:32;10.40;1.00
53880;DHT22;39791;53.184;5.486;2023-04-03T09:40:39;11.00;1.00
53880;DHT22;39791;53.184;5.486;2023-04-03T09:45:44;11.30;1.00
53880;DHT22;39791;53.184;5.486;2023-04-03T09:53:41;11.00;1.00
53880;DHT22;39791;53.184;5.486;2023-04-03T09:58:40;10.80;1.00
53880;DHT22;39791;53.184;5.486;2023-04-03T10:04:11;11.10;1.00
53880;DHT22;39791;53.184;5.486;2023-04-03T10:06:49;10.90;1.00
53880;DHT22;39791;53.184;5.486;2023-04-03T10:09:31;10.90;1.00
53880;DHT22;39791;53.184;5.486;2023-04-03T10:14:26;10.30;1.00
53880;DHT22;39791;53.184;5.486;2023-04-03T10:17:21;10.50;1.00
53880;DHT22;39791;53.184;5.486;2023-04-03T10:25:43;10.20;1.00
53880;DHT22;39791;53.184;5.486;2023-04-03T10:28:26;10.10;1.00
53880;DHT22;39791;53.184;5.486;2023-04-03T10:36:52;10.40;1.00
53880;DHT22;39791;53.184;5.486;2023-04-03T10:40:05;10.40;1.00
53880;DHT22;39791;53.184;5.486;2023-04-03T10:45:23;10.40;1.00
53880;DHT22;39791;53.184;5.486;2023-04-03T10:48:14;10.20;1.00
53880;DHT22;39791;53.184;5.486;2023-04-03T10:58:56;10.40;1.00
53880;DHT22;39791;53.184;5.486;2023-04-03T11:01:38;11.50;1.00
53880;DHT22;39791;53.184;5.486;2023-04-03T11:04:05;10.70;1.00
53880;DHT22;39791;53.184;5.486;2023-04-03T11:06:54;10.80;1.00
53880;DHT22;39791;53.184;5.486;2023-04-03T11:09:28;10.30;1.00
53880;DHT22;39791;53.184;5.486;2023-04-03T11:12:18;10.40;1.00
53880;DHT22;39791;53.184;5.486;2023-04-03T11:14:47;10.60;1.00
53880;DHT22;39791;53.184;5.486;2023-04-03T11:19:59;10.80;1.00
53880;DHT22;39791;53.184;5.486;2023-04-03T11:22:33;10.70;1.00
53880;DHT22;39791;53.184;5.486;2023-04-03T11:25:04;10.60;1.00
53880;DHT22;39791;53.184;5.486;2023-04-03T11:27:45;10.50;1.00
53880;DHT22;39791;53.184;5.486;2023-04-03T11:30:20;10.20;1.00
53880;DHT22;39791;53.184;5.486;2023-04-03T11:33:18;10.10;1.00
53880;DHT22;39791;53.184;5.486;2023-04-03T11:35:54;10.20;1.00
53880;DHT22;39791;53.184;5.486;2023-04-03T11:38:23;10.40;1.00
53880;DHT22;39791;53.184;5.486;2023-04-03T11:40:52;10.30;1.00
53880;DHT22;39791;53.184;5.486;2023-04-03T11:43:28;10.30;1.00
53880;DHT22;39791;53.184;5.486;2023-04-03T11:50:52;10.20;1.00
53880;DHT22;39791;53.184;5.486;2023-04-03T11:56:26;10.10;1.00
53880;DHT22;39791;53.184;5.486;2023-04-03T12:01:53;10.10;1.00
53880;DHT22;39791;53.184;5.486;2023-04-03T12:04:22;9.80;99.90
53880;DHT22;39791;53.184;5.486;2023-04-03T12:06:49;11.30;1.00
53880;DHT22;39791;53.184;5.486;2023-04-03T12:09:31;10.00;1.00
53880;DHT22;39791;53.184;5.486;2023-04-03T12:12:00;10.30;1.00
53880;DHT22;39791;53.184;5.486;2023-04-03T12:14:28;10.40;1.00
53880;DHT22;39791;53.184;5.486;2023-04-03T12:16:55;10.40;99.90
53880;DHT22;39791;53.184;5.486;2023-04-03T12:19:36;10.30;99.90
53880;DHT22;39791;53.184;5.486;2023-04-03T12:24:30;10.20;99.90
53880;DHT22;39791;53.184;5.486;2023-04-03T12:45:44;10.60;99.90
53880;DHT22;39791;53.184;5.486;2023-04-03T12:48:24;10.30;99.90
53880;DHT22;39791;53.184;5.486;2023-04-03T12:50:50;10.30;99.90
53880;DHT22;39791;53.184;5.486;2023-04-03T12:53:26;10.20;99.90
53880;DHT22;39791;53.184;5.486;2023-04-03T12:56:19;10.20;99.90
53880;DHT22;39791;53.184;5.486;2023-04-03T12:58:50;10.00;99.90
53880;DHT22;39791;53.184;5.486;2023-04-03T13:01:19;11.00;99.90
53880;DHT22;39791;53.184;5.486;2023-04-03T13:03:49;10.00;99.90
53880;DHT22;39791;53.184;5.486;2023-04-03T13:06:22;10.00;99.90
53880;DHT22;39791;53.184;5.486;2023-04-03T13:08:54;10.10;99.90
53880;DHT22;39791;53.184;5.486;2023-04-03T13:11:22;10.90;99.90
53880;DHT22;39791;53.184;5.486;2023-04-03T13:14:04;10.10;99.90
53880;DHT22;39791;53.184;5.486;2023-04-03T13:16:32;10.20;99.90
53880;DHT22;39791;53.184;5.486;2023-04-03T13:18:58;10.20;99.90
53880;DHT22;39791;53.184;5.486;2023-04-03T13:21:30;10.20;99.90
53880;DHT22;39791;53.184;5.486;2023-04-03T13:23:58;10.30;99.90
53880;DHT22;39791;53.184;5.486;2023-04-03T13:26:28;10.30;99.90
53880;DHT22;39791;53.184;5.486;2023-04-03T13:29:03;10.30;99.90
53880;DHT22;39791;53.184;5.486;2023-04-03T13:31:31;10.10;99.90
53880;DHT22;39791;53.184;5.486;2023-04-03T13:36:34;9.80;99.90
53880;DHT22;39791;53.184;5.486;2023-04-03T13:39:06;9.80;99.90
53880;DHT22;39791;53.184;5.486;2023-04-03T13:41:38;9.90;99.90
53880;DHT22;39791;53.184;5.486;2023-04-03T13:46:49;10.20;99.90
53880;DHT22;39791;53.184;5.486;2023-04-03T13:51:46;10.20;99.90
53880;DHT22;39791;53.184;5.486;2023-04-03T13:54:45;11.60;99.90
53880;DHT22;39791;53.184;5.486;2023-04-03T13:57:14;10.30;99.90
53880;DHT22;39791;53.184;5.486;2023-04-03T13:59:40;10.60;99.90
53880;DHT22;39791;53.184;5.486;2023-04-03T14:02:17;10.20;99.90
53880;DHT22;39791;53.184;5.486;2023-04-03T14:07:10;10.10;99.90
53880;DHT22;39791;53.184;5.486;2023-04-03T14:09:36;10.10;99.90
53880;DHT22;39791;53.184;5.486;2023-04-03T14:12:08;10.00;99.90
53880;DHT22;39791;53.184;5.486;2023-04-03T14:14:40;9.90;99.90
53880;DHT22;39791;53.184;5.486;2023-04-03T14:17:19;10.30;99.90
53880;DHT22;39791;53.184;5.486;2023-04-03T14:19:47;11.30;99.90
53880;DHT22;39791;53.184;5.486;2023-04-03T14:22:16;10.20;99.90
53880;DHT22;39791;53.184;5.486;2023-04-03T14:24:44;10.50;99.90
53880;DHT22;39791;53.184;5.486;2023-04-03T14:27:29;10.20;99.90
53880;DHT22;39791;53.184;5.486;2023-04-03T14:29:57;10.20;99.90
53880;DHT22;39791;53.184;5.486;2023-04-03T14:32:24;10.20;99.90
53880;DHT22;39791;53.184;5.486;2023-04-03T14:34:51;10.30;99.90
53880;DHT22;39791;53.184;5.486;2023-04-03T14:37:23;10.30;99.90
53880;DHT22;39791;53.184;5.486;2023-04-03T14:39:51;10.80;99.90
53880;DHT22;39791;53.184;5.486;2023-04-03T14:42:30;10.20;99.90
53880;DHT22;39791;53.184;5.486;2023-04-03T14:44:57;10.30;99.90
53880;DHT22;39791;53.184;5.486;2023-04-03T14:47:25;10.20;99.90
53880;DHT22;39791;53.184;5.486;2023-04-03T14:49:52;10.20;99.90
53880;DHT22;39791;53.184;5.486;2023-04-03T14:52:30;11.40;99.90
53880;DHT22;39791;53.184;5.486;2023-04-03T14:54:56;10.20;99.90
53880;DHT22;39791;53.184;5.486;2023-04-03T14:57:24;10.50;99.90
53880;DHT22;39791;53.184;5.486;2023-04-03T14:59:50;10.10;99.90
53880;DHT22;39791;53.184;5.486;2023-04-03T15:04:53;10.20;99.90
53880;DHT22;39791;53.184;5.486;2023-04-03T15:07:20;10.20;99.90
53880;DHT22;39791;53.184;5.486;2023-04-03T15:09:45;10.10;99.90
53880;DHT22;39791;53.184;5.486;2023-04-03T15:12:11;10.10;99.90
53880;DHT22;39791;53.184;5.486;2023-04-03T15:14:37;10.10;99.90
53880;DHT22;39791;53.184;5.486;2023-04-03T15:17:08;10.10;99.90
53880;DHT22;39791;53.184;5.486;2023-04-03T15:19:38;10.10;99.90
53880;DHT22;39791;53.184;5.486;2023-04-03T15:22:04;10.20;99.90
53880;DHT22;39791;53.184;5.486;2023-04-03T15:24:29;10.20;99.90
53880;DHT22;39791;53.184;5.486;2023-04-03T15:26:55;10.20;99.90
53880;DHT22;39791;53.184;5.486;2023-04-03T15:29:21;10.20;99.90
53880;DHT22;39791;53.184;5.486;2023-04-03T15:31:46;10.10;99.90
53880;DHT22;39791;53.184;5.486;2023-04-03T15:34:12;10.10;99.90
53880;DHT22;39791;53.184;5.486;2023-04-03T15:36:37;10.10;99.90
53880;DHT22;39791;53.184;5.486;2023-04-03T15:39:03;10.30;99.90
53880;DHT22;39791;53.184;5.486;2023-04-03T15:41:29;10.10;99.90
53880;DHT22;39791;53.184;5.486;2023-04-03T15:43:54;10.00;99.90
53880;DHT22;39791;53.184;5.486;2023-04-03T15:46:21;10.90;99.90
53880;DHT22;39791;53.184;5.486;2023-04-03T15:48:47;11.50;99.90
53880;DHT22;39791;53.184;5.486;2023-04-03T15:51:12;9.90;99.90
53880;DHT22;39791;53.184;5.486;2023-04-03T15:53:38;11.40;99.90
53880;DHT22;39791;53.184;5.486;2023-04-03T15:56:04;9.80;99.90
53880;DHT22;39791;53.184;5.486;2023-04-03T15:58:30;9.70;1.00
53880;DHT22;39791;53.184;5.486;2023-04-03T16:01:00;9.50;1.00
53880;DHT22;39791;53.184;5.486;2023-04-03T16:03:27;9.50;1.00
53880;DHT22;39791;53.184;5.486;2023-04-03T16:05:53;9.30;1.00
53880;DHT22;39791;53.184;5.486;2023-04-03T16:08:19;9.20;1.00
53880;DHT22;39791;53.184;5.486;2023-04-03T16:10:45;10.00;1.00
53880;DHT22;39791;53.184;5.486;2023-04-03T16:13:12;9.10;1.00
53880;DHT22;39791;53.184;5.486;2023-04-03T16:15:38;9.10;1.00
53880;DHT22;39791;53.184;5.486;2023-04-03T16:18:04;10.10;1.00
53880;DHT22;39791;53.184;5.486;2023-04-03T16:20:31;10.70;1.00
53880;DHT22;39791;53.184;5.486;2023-04-03T16:22:58;8.90;1.00
53880;DHT22;39791;53.184;5.486;2023-04-03T16:25:25;9.20;1.00
53880;DHT22;39791;53.184;5.486;2023-04-03T16:27:50;9.10;1.00
53880;DHT22;39791;53.184;5.486;2023-04-03T16:30:16;9.10;1.00
53880;DHT22;39791;53.184;5.486;2023-04-03T16:32:42;10.60;1.00
53880;DHT22;39791;53.184;5.486;2023-04-03T16:35:09;10.80;1.00
53880;DHT22;39791;53.184;5.486;2023-04-03T16:37:37;9.90;1.00
53880;DHT22;39791;53.184;5.486;2023-04-03T16:40:03;8.40;1.00
53880;DHT22;39791;53.184;5.486;2023-04-03T16:42:30;8.80;1.00
53880;DHT22;39791;53.184;5.486;2023-04-03T16:44:56;8.80;1.00
53880;DHT22;39791;53.184;5.486;2023-04-03T16:47:22;8.80;1.00
53880;DHT22;39791;53.184;5.486;2023-04-03T16:49:47;9.70;1.00
53880;DHT22;39791;53.184;5.486;2023-04-03T16:52:14;8.70;1.00
53880;DHT22;39791;53.184;5.486;2023-04-03T16:54:41;9.60;1.00
53880;DHT22;39791;53.184;5.486;2023-04-03T16:57:08;8.70;1.00
53880;DHT22;39791;53.184;5.486;2023-04-03T16:59:33;8.70;1.00
53880;DHT22;39791;53.184;5.486;2023-04-03T17:01:59;8.30;1.00
53880;DHT22;39791;53.184;5.486;2023-04-03T17:04:25;9.50;1.00
53880;DHT22;39791;53.184;5.486;2023-04-03T17:06:52;8.50;1.00
53880;DHT22;39791;53.184;5.486;2023-04-03T17:09:19;8.30;1.00
53880;DHT22;39791;53.184;5.486;2023-04-03T17:11:46;8.40;1.00
53880;DHT22;39791;53.184;5.486;2023-04-03T17:14:12;8.20;1.00
53880;DHT22;39791;53.184;5.486;2023-04-03T17:16:38;8.10;1.00
53880;DHT22;39791;53.184;5.486;2023-04-03T17:19:04;8.20;1.00
53880;DHT22;39791;53.184;5.486;2023-04-03T17:21:32;7.80;1.00
53880;DHT22;39791;53.184;5.486;2023-04-03T17:24:01;8.20;1.00
53880;DHT22;39791;53.184;5.486;2023-04-03T17:26:30;8.00;1.00
53880;DHT22;39791;53.184;5.486;2023-04-03T17:28:59;10.10;1.00
53880;DHT22;39791;53.184;5.486;2023-04-03T17:31:24;7.70;1.00
53880;DHT22;39791;53.184;5.486;2023-04-03T17:33:53;8.10;1.00
53880;DHT22;39791;53.184;5.486;2023-04-03T17:36:18;8.00;1.00
53880;DHT22;39791;53.184;5.486;2023-04-03T17:38:44;7.70;1.00
53880;DHT22;39791;53.184;5.486;2023-04-03T17:41:13;7.90;1.00
53880;DHT22;39791;53.184;5.486;2023-04-03T17:43:39;7.90;1.00